TXKFTNCM

Guest
Details From TXKF - Bermuda Intl
To TNCM - St Maarten - Princess Juliana Intl
Flight Number -
Tags Generated
Created
Modified
Stats Distance 865 nm / 1,602 km
Max Altitude 0 ft / 0 m
Waypoints 3
Social Downloads 1
Likes 0
Share VATSIM

Download

Looking for another format? Having issues loading an existing format? Contact us
Advertisement - Login to hide

Notes

Generated

Route

TXKF PJD TNCM

ID Type Via Altitude Latitude Longitude Leg Dist Tot Dist Heading (true) Name
O TXKF APT - 0 ft / 0 m 32.36669˚ -64.69410˚ - 0 nm - -
PJD NDB - 0 ft / 0 m 18.03833˚ -63.11833˚ 864 nm 864 nm 174° / 175° ST MAARTEN NDB
O TNCM APT - 0 ft / 0 m 18.03937˚ -63.11961˚ 0 nm 864 nm 310° / 310° -

Altitude Profile

Advertisement - Login to hide

Weather


0- 5 10 15 20 25 30 35+ Temperature / ° C

Clouds and Precipitation
Forecast for 2017-12-16 00:00 UTC. Updated an hour ago

Ground ~20,000 ft ~40,000 ft Winds

TXKF

Details ICAO TXKF (BDA)
Name Bermuda Intl
Region Bermuda
Timezone Unknown (UTC+0.0)
Stats Elevation 12 ft / 4 m (AMSL)
Location 32.364038° -64.678684°
Runways 1
Magnetic Variation 14.784° W

METAR

TXKF 152355Z 23016KT 9999 FEW030 SCT180 BKN300 22/16 Q1018

Decode

TAF

TAF TXKF 152332Z 1600/1624 23015KT 9999 VCSH FEW030 SCT180 BKN300 TEMPO 1606/1612 26025G35KT PROB40 TEMPO 1609/1618 3200 SHRA BKN020 BECMG 1612/1616 31018KT

Decode

Departure Runways

ID Width Length Bearing (true) Bearing (mag) Surface Threshold Offset Overrun Length
12 150 ft / 46 m 9,701 ft / 2,957 m 101.50° 116.28° Asphalt 0 ft / 0 m 553 ft / 169 m
30 150 ft / 46 m 9,701 ft / 2,957 m 281.52° 296.30° Asphalt 0 ft / 0 m 207 ft / 63 m

TNCM

Details ICAO TNCM (SXM)
Name St Maarten - Princess Juliana Intl
Region Caribbean Netherlands, Aruba, Curaçao, Sint Maarten
Timezone Unknown (UTC+0.0)
Stats Elevation 12 ft / 4 m (AMSL)
Location 18.040889° -63.108974°
Runways 1
Magnetic Variation 14.325° W

METAR

TNCM 160000Z 06009KT 020V090 9999 FEW022 SCT045 26/21 Q1018 NOSIG RMK A3006

Decode

TAF

TAF TNCM 152320Z 1600/1624 06010KT P6SM SCT022 FM161200 05017KT P6SM SCT018 SCT040 FM162300 06011KT P6SM FEW022

Decode

Destination Runways

ID Width Length Bearing (true) Bearing (mag) Surface Threshold Offset Overrun Length
10 148 ft / 45 m 7,464 ft / 2,275 m 81.43° 95.76° Asphalt 0 ft / 0 m 151 ft / 46 m
28 148 ft / 45 m 7,464 ft / 2,275 m 261.44° 275.77° Asphalt 397 ft / 121 m 0 ft / 0 m

Popular Alternatives